Time;durP1;ratioP1;P1;durP2;ratioP2;P2;SDS_P1;SDS_P2;PMS_P1;PMS_P2;Temp;Humidity;BMP_temperature;BMP_pressure;BME280_temperature;BME280_humidity;BME280_pressure;Samples;Min_cycle;Max_cycle;Signal;HPM_P1;HPM_P2
2022/05/11 00:00:57;;;;;;;3.03;2.60;;;20.30;93.30;;;20.28;45.95;101000.59;4955470;28;97186;-62
2022/05/11 00:03:23;;;;;;;2.90;2.60;;;20.30;93.20;;;20.29;45.93;100996.09;4965022;28;115716;-62
2022/05/11 00:05:49;;;;;;;2.33;2.10;;;20.30;93.10;;;20.28;45.99;100994.38;4966231;28;97049;-62
2022/05/11 00:08:15;;;;;;;5.43;3.00;;;20.30;93.10;;;20.25;47.01;100986.53;4974335;28;96996;-62
2022/05/11 00:10:41;;;;;;;5.30;3.10;;;20.30;93.90;;;20.24;46.76;100988.38;4972615;28;111412;-62
2022/05/11 00:13:07;;;;;;;2.70;2.50;;;20.30;93.90;;;20.23;46.59;100986.66;4965398;28;97638;-62
2022/05/11 00:15:34;;;;;;;4.83;2.73;;;20.30;93.50;;;20.25;46.46;100983.88;4967835;28;96795;-62
2022/05/11 00:18:01;;;;;;;3.57;2.60;;;20.30;93.40;;;20.22;47.07;100984.94;4952910;28;97032;-62
2022/05/11 00:20:27;;;;;;;3.70;2.57;;;20.30;93.70;;;20.25;46.71;100983.88;4960615;28;97080;-62
2022/05/11 00:22:56;;;;;;;2.77;2.57;;;20.30;93.50;;;20.25;46.39;100981.19;4984582;28;96996;-62
2022/05/11 00:25:25;;;;;;;2.73;2.27;;;20.30;93.50;;;20.23;46.35;100980.44;4983304;28;97422;-62
2022/05/11 00:27:56;;;;;;;6.97;3.13;;;20.20;93.50;;;20.24;49.48;100977.66;4975657;28;96884;-65
2022/05/11 00:30:24;;;;;;;6.27;3.43;;;20.30;95.50;;;20.24;49.47;100977.66;4958232;28;101850;-62
2022/05/11 00:32:56;;;;;;;5.50;3.00;;;20.30;96.10;;;20.20;49.41;100976.16;4968377;28;97125;-62
2022/05/11 00:35:24;;;;;;;6.37;3.00;;;20.20;95.50;;;20.21;49.63;100975.19;4970458;28;99049;-62
2022/05/11 00:37:50;;;;;;;6.40;3.03;;;20.20;95.80;;;20.15;48.28;100967.59;4958349;28;98232;-64
2022/05/11 00:40:19;;;;;;;6.00;3.27;;;20.20;95.20;;;20.19;49.79;100971.78;4971116;28;102898;-62
2022/05/11 00:42:48;;;;;;;5.23;3.57;;;20.20;96.10;;;20.18;49.68;100962.03;4969141;28;97090;-62
2022/05/11 00:45:15;;;;;;;2.40;2.20;;;20.20;96.00;;;20.14;48.65;100961.41;4956895;28;97070;-63
2022/05/11 00:47:56;;;;;;;2.63;2.43;;;20.20;95.40;;;20.16;47.81;100961.28;4970680;28;97033;-62
2022/05/11 00:50:32;;;;;;;2.70;2.00;;;20.10;94.80;;;20.14;47.20;100950.69;4975542;28;102181;-62
2022/05/11 00:53:09;;;;;;;5.00;3.43;;;20.10;94.20;;;20.13;48.08;100956.16;4957596;28;97008;-62
2022/05/11 00:55:42;;;;;;;4.10;3.10;;;20.10;94.90;;;20.14;49.67;100953.38;4975443;28;96611;-62
2022/05/11 00:58:17;;;;;;;5.60;2.90;;;20.10;95.90;;;20.12;48.53;100949.09;4969080;28;97188;-62
2022/05/11 01:00:45;;;;;;;2.33;2.10;;;20.10;95.30;;;20.11;47.54;100945.56;4968744;28;97061;-62
2022/05/11 01:03:18;;;;;;;2.30;2.10;;;20.10;94.60;;;20.13;46.71;100942.75;4976474;28;97106;-61
2022/05/11 01:05:46;;;;;;;2.30;2.10;;;20.10;93.90;;;20.13;46.56;100937.41;4959708;28;96970;-62
2022/05/11 01:08:14;;;;;;;2.47;2.20;;;20.10;93.60;;;20.15;46.43;100930.13;4972749;28;97510;-62
2022/05/11 01:10:41;;;;;;;2.37;2.17;;;20.10;93.60;;;20.16;46.21;100939.88;4975722;28;96986;-62
2022/05/11 01:13:12;;;;;;;2.40;2.20;;;20.10;93.50;;;20.17;46.49;100930.84;4955477;28;99148;-62
2022/05/11 01:15:38;;;;;;;3.07;2.07;;;20.20;93.60;;;20.16;47.15;100926.47;4979911;28;97032;-62
2022/05/11 01:18:08;;;;;;;4.93;3.20;;;20.20;94.20;;;20.18;48.68;100936.09;4976191;28;96943;-62
2022/05/11 01:20:36;;;;;;;2.60;2.20;;;20.20;95.30;;;20.17;48.46;100926.34;4985167;28;98230;-62
2022/05/11 01:23:16;;;;;;;5.07;3.27;;;20.20;95.30;;;20.20;48.87;100919.91;4975680;28;97195;-62
2022/05/11 01:25:43;;;;;;;4.97;2.90;;;20.20;95.50;;;20.17;47.85;100920.16;4964534;28;97170;-62
2022/05/11 01:28:13;;;;;;;4.03;1.93;;;20.20;95.60;;;20.17;48.39;100922.81;4972111;28;96953;-62
2022/05/11 01:30:43;;;;;;;3.07;2.77;;;20.10;95.20;;;20.17;48.47;100917.47;4967856;28;97953;-62
2022/05/11 01:33:17;;;;;;;2.63;2.43;;;20.10;95.70;;;20.15;48.27;100922.94;4955990;28;96994;-62
2022/05/11 01:36:08;;;;;;;3.07;2.43;;;20.10;95.30;;;20.16;47.99;100918.44;4960921;28;96940;-62
2022/05/11 01:38:44;;;;;;;4.73;3.90;;;20.10;95.40;;;20.13;48.54;100913.31;4986452;28;96967;-62
2022/05/11 01:41:22;;;;;;;2.20;2.00;;;20.10;96.10;;;20.09;48.74;100904.63;4960654;28;97176;-61
2022/05/11 01:43:50;;;;;;;5.30;2.67;;;20.00;95.10;;;20.08;48.79;100897.53;4964382;28;96727;-62
2022/05/11 01:46:16;;;;;;;4.47;3.03;;;20.00;95.70;;;20.09;49.20;100901.06;4973350;28;97201;-62
2022/05/11 01:48:43;;;;;;;3.27;2.73;;;20.10;95.80;;;20.08;47.95;100891.34;4980759;28;97054;-62
2022/05/11 01:51:12;;;;;;;2.83;2.10;;;20.00;95.30;;;20.09;48.30;100898.41;4975847;28;97641;-62
2022/05/11 01:53:39;;;;;;;7.43;3.47;;;20.10;95.20;;;20.07;48.52;100886.94;4968383;28;97300;-62
2022/05/11 01:56:06;;;;;;;2.60;2.33;;;20.10;96.00;;;20.06;47.54;100893.28;4971196;28;97311;-62
2022/05/11 01:58:32;;;;;;;2.37;2.17;;;20.00;95.50;;;20.04;48.26;100889.84;4968151;28;96987;-62
2022/05/11 02:00:59;;;;;;;7.17;4.40;;;20.00;95.20;;;20.04;48.40;100889.84;4959935;28;99571;-62
2022/05/11 02:03:25;;;;;;;2.40;2.20;;;20.00;95.40;;;20.04;48.31;100892.53;4962603;28;97004;-62
2022/05/11 02:08:40;;;;;;;2.90;2.43;;;20.00;95.20;;;20.01;48.93;100877.53;4967013;28;97025;-61
2022/05/11 02:11:07;;;;;;;2.20;2.00;;;20.00;95.50;;;20.02;48.25;100881.94;4959204;28;97618;-62
2022/05/11 02:13:33;;;;;;;2.53;2.33;;;20.00;95.40;;;20.04;48.21;100879.16;4973119;28;97107;-62
2022/05/11 02:16:00;;;;;;;2.30;2.00;;;20.00;95.50;;;20.03;47.82;100869.41;4980267;28;96678;-62
2022/05/11 02:18:26;;;;;;;2.03;1.83;;;20.00;94.90;;;20.03;47.84;100866.72;4984736;28;102834;-62
2022/05/11 02:20:51;;;;;;;2.97;2.50;;;20.00;95.00;;;20.05;47.42;100867.47;4961770;28;98818;-65
2022/05/11 02:23:20;;;;;;;2.10;1.90;;;20.00;94.90;;;20.04;47.88;100869.28;4973529;28;101302;-62
2022/05/11 02:25:47;;;;;;;4.30;3.70;;;20.00;94.70;;;20.05;48.31;100864.78;4978656;28;96883;-62
2022/05/11 02:28:14;;;;;;;2.43;2.20;;;20.10;95.30;;;20.06;47.56;100866.50;4969346;28;96801;-61
2022/05/11 02:30:44;;;;;;;2.50;2.30;;;20.00;94.80;;;20.05;46.62;100862.97;4966197;28;97491;-62
2022/05/11 02:33:12;;;;;;;2.40;2.13;;;20.00;94.10;;;20.07;46.62;100857.50;4970289;28;97045;-62
2022/05/11 02:35:38;;;;;;;2.07;1.80;;;20.10;93.90;;;20.07;47.57;100852.13;4968430;28;97433;-62
2022/05/11 02:38:14;;;;;;;2.20;2.00;;;20.00;94.40;;;20.08;47.11;100859.22;4974028;28;96811;-62
2022/05/11 02:40:41;;;;;;;2.10;1.90;;;20.00;94.20;;;20.07;46.72;100852.13;4977315;28;97333;-61
2022/05/11 02:43:09;;;;;;;2.30;2.10;;;20.00;93.80;;;20.07;46.38;100853.00;4956990;28;97046;-61
2022/05/11 02:45:39;;;;;;;1.60;1.50;;;20.10;93.80;;;20.08;46.57;100845.81;4957505;28;96935;-62
2022/05/11 02:48:07;;;;;;;2.10;1.90;;;20.10;93.80;;;20.09;46.63;100844.84;4961604;28;98443;-62
2022/05/11 02:50:42;;;;;;;1.70;1.60;;;20.10;93.70;;;20.12;46.31;100833.94;4982366;28;97067;-62
2022/05/11 02:53:10;;;;;;;2.03;1.83;;;20.10;93.70;;;20.11;46.39;100832.22;4977787;28;97374;-63
2022/05/11 02:55:42;;;;;;;2.20;1.73;;;20.10;93.70;;;20.13;46.41;100833.81;4975878;28;97038;-62
2022/05/11 02:58:10;;;;;;;1.83;1.73;;;20.10;93.70;;;20.14;46.76;100832.84;4973907;28;97529;-62
2022/05/11 03:00:38;;;;;;;3.83;1.97;;;20.10;94.00;;;20.16;46.57;100830.06;4968997;28;99627;-63
2022/05/11 03:03:06;;;;;;;2.37;2.17;;;20.10;93.90;;;20.17;46.89;100823.75;4973074;28;98110;-63
2022/05/11 03:05:32;;;;;;;3.27;2.70;;;20.10;94.30;;;20.15;47.18;100820.31;4962261;28;97104;-62
2022/05/11 03:07:58;;;;;;;2.57;2.23;;;20.10;94.60;;;20.14;46.80;100821.28;4953368;28;96613;-62
2022/05/11 03:10:25;;;;;;;2.30;2.00;;;20.10;94.40;;;20.11;46.97;100822.38;4979927;28;96917;-62
2022/05/11 03:12:51;;;;;;;2.27;2.07;;;20.10;94.50;;;20.11;46.59;100813.50;4976917;28;96876;-68
2022/05/11 03:15:17;;;;;;;2.20;2.00;;;20.00;94.00;;;20.13;46.62;100816.91;4971248;28;97435;-62
2022/05/11 03:17:43;;;;;;;1.90;1.80;;;20.00;94.00;;;20.13;46.78;100808.88;4980570;28;97071;-63
2022/05/11 03:20:10;;;;;;;2.43;2.23;;;20.10;94.10;;;20.13;47.17;100806.19;4976634;28;112049;-62
2022/05/11 03:22:36;;;;;;;5.77;3.60;;;20.10;94.30;;;20.12;47.36;100812.53;4973124;28;96683;-62
2022/05/11 03:25:04;;;;;;;6.40;4.43;;;20.10;95.10;;;20.11;47.67;100816.16;4966702;28;102740;-62
2022/05/11 03:27:30;;;;;;;5.67;3.80;;;20.10;95.30;;;20.06;47.31;100797.72;4972732;28;96916;-62
2022/05/11 03:29:56;;;;;;;2.20;2.00;;;20.00;95.40;;;20.03;47.33;100802.47;4973959;28;110079;-63
2022/05/11 03:35:10;;;;;;;1.90;1.80;;;19.90;94.60;;;19.99;47.53;100801.84;4977339;28;98287;-62
2022/05/11 03:37:37;;;;;;;3.63;2.77;;;19.90;95.00;;;19.98;47.40;100800.13;4970826;28;96878;-62
2022/05/11 03:40:08;;;;;;;2.33;2.13;;;19.90;95.00;;;19.98;47.35;100799.28;4978117;28;98507;-62
2022/05/11 03:42:36;;;;;;;2.37;2.17;;;19.90;94.70;;;19.96;47.19;100798.50;4976318;28;97158;-63
2022/05/11 03:45:18;;;;;;;6.77;4.97;;;19.90;94.60;;;19.94;48.04;100798.63;4961805;28;98106;-62
2022/05/11 03:47:48;;;;;;;2.43;2.07;;;19.80;96.20;;;19.90;47.33;100791.78;4973343;28;96984;-63
2022/05/11 03:50:16;;;;;;;5.17;4.07;;;19.80;94.80;;;19.89;47.56;100796.28;4975281;28;97167;-62
2022/05/11 03:52:43;;;;;;;2.57;2.37;;;19.80;95.20;;;19.90;47.68;100787.28;4980184;28;97535;-62
2022/05/11 03:55:11;;;;;;;4.17;3.00;;;19.80;94.80;;;19.88;47.65;100788.38;4990960;28;96941;-62
2022/05/11 03:57:38;;;;;;;2.37;2.17;;;19.80;95.90;;;19.86;47.53;100785.81;4966129;28;97537;-63
2022/05/11 04:00:11;;;;;;;4.73;3.50;;;19.80;94.80;;;19.87;47.59;100784.00;4977462;28;96926;-62
2022/05/11 04:02:38;;;;;;;2.87;2.17;;;19.80;95.70;;;19.85;47.50;100773.41;4976245;28;97022;-63
2022/05/11 04:05:05;;;;;;;1.90;1.80;;;19.80;94.70;;;19.86;47.38;100775.09;4979144;28;97238;-63
2022/05/11 04:07:33;;;;;;;5.10;4.60;;;19.80;94.70;;;19.82;48.10;100778.97;4982752;28;97045;-62
2022/05/11 04:09:59;;;;;;;2.20;2.10;;;19.70;96.50;;;19.80;47.62;100772.84;4954835;28;97803;-63
2022/05/11 04:12:27;;;;;;;2.80;2.60;;;19.70;94.90;;;19.83;47.61;100780.69;4992979;28;97801;-63
2022/05/11 04:14:52;;;;;;;6.87;5.17;;;19.70;95.00;;;19.80;48.01;100790.72;4964523;28;96839;-65
2022/05/11 04:17:18;;;;;;;2.37;2.17;;;19.70;96.50;;;19.78;47.55;100788.16;4973948;28;97126;-63
2022/05/11 04:19:44;;;;;;;6.03;4.47;;;19.60;95.20;;;19.78;47.97;100776.59;4962697;28;96653;-63
2022/05/11 04:22:10;;;;;;;6.27;4.70;;;19.60;95.80;;;19.76;48.23;100781.22;4974698;28;98651;-63
2022/05/11 04:24:36;;;;;;;3.20;2.37;;;19.60;96.50;;;19.72;47.92;100782.41;4961712;28;96932;-62
2022/05/11 04:27:02;;;;;;;2.40;2.20;;;19.60;95.70;;;19.72;47.59;100767.22;4959479;28;96762;-63
2022/05/11 04:29:28;;;;;;;6.87;4.50;;;19.60;95.00;;;19.72;49.58;100777.06;4968100;28;99437;-63
2022/05/11 04:31:55;;;;;;;2.40;2.20;;;19.60;97.20;;;19.68;48.08;100781.78;4956049;28;97425;-63
2022/05/11 04:34:22;;;;;;;2.40;2.20;;;19.50;96.10;;;19.69;47.82;100778.16;4970663;28;98119;-63
2022/05/11 04:36:49;;;;;;;3.17;2.30;;;19.50;95.20;;;19.71;48.16;100781.56;4945563;28;96778;-62
2022/05/11 04:39:15;;;;;;;5.73;2.87;;;19.60;95.80;;;19.73;48.11;100784.97;4969394;28;97664;-62
2022/05/11 04:41:41;;;;;;;2.57;2.13;;;19.60;96.50;;;19.74;47.67;100775.97;4969827;28;98379;-62
2022/05/11 04:44:07;;;;;;;1.93;1.77;;;19.60;95.20;;;19.75;47.53;100777.69;4971038;28;97309;-62
2022/05/11 04:46:35;;;;;;;2.30;2.10;;;19.70;95.30;;;19.78;47.54;100777.47;4973390;28;96512;-63
2022/05/11 04:49:16;;;;;;;2.20;2.00;;;19.70;95.00;;;19.82;47.78;100778.13;4967066;28;98457;-62
2022/05/11 04:51:43;;;;;;;2.53;2.23;;;19.70;94.90;;;19.84;47.50;100777.03;4980861;28;97964;-62
2022/05/11 04:54:11;;;;;;;2.40;2.20;;;19.80;94.70;;;19.87;47.19;100771.47;4963476;28;97434;-62
2022/05/11 04:56:38;;;;;;;5.10;2.50;;;19.80;94.60;;;19.90;47.34;100778.41;4970749;28;96955;-63
2022/05/11 04:59:05;;;;;;;5.53;3.10;;;19.90;94.70;;;19.92;47.75;100774.66;4963448;28;97029;-62
2022/05/11 05:01:32;;;;;;;11.30;4.90;;;19.90;95.00;;;19.94;48.28;100776.34;4970767;28;97292;-62
2022/05/11 05:03:58;;;;;;;2.40;2.20;;;19.90;96.00;;;19.91;47.18;100772.94;4973335;28;97075;-62
2022/05/11 05:06:24;;;;;;;2.23;1.93;;;19.90;94.70;;;19.94;47.22;100771.00;4999754;28;105497;-62
2022/05/11 05:08:53;;;;;;;2.70;2.30;;;19.90;94.70;;;19.95;47.50;100772.72;4981173;28;96785;-63
2022/05/11 05:11:19;;;;;;;2.07;1.90;;;19.90;94.60;;;19.97;46.99;100770.81;4972504;28;100461;-62
2022/05/11 05:13:44;;;;;;;2.37;2.17;;;19.90;94.40;;;19.98;47.21;100772.50;4970908;28;96691;-63
2022/05/11 05:16:10;;;;;;;3.57;2.27;;;20.00;94.70;;;19.99;46.95;100768.88;4975039;28;97194;-63
2022/05/11 05:18:36;;;;;;;2.03;1.90;;;20.00;94.40;;;19.99;47.10;100775.06;4970551;28;105356;-63
2022/05/11 05:21:02;;;;;;;2.03;1.90;;;20.00;94.60;;;19.99;46.96;100775.06;4963754;28;98599;-63
2022/05/11 05:23:28;;;;;;;2.30;2.10;;;20.00;95.10;;;19.99;47.10;100775.06;4974018;28;97450;-62
2022/05/11 05:25:53;;;;;;;2.43;2.23;;;20.00;94.40;;;20.00;47.63;100774.09;4969757;28;100466;-64
2022/05/11 05:31:11;;;;;;;2.83;2.57;;;20.00;94.30;;;20.03;46.92;100781.03;4967360;28;97350;-63
2022/05/11 05:33:39;;;;;;;2.20;2.00;;;20.00;94.30;;;20.01;47.10;100780.31;4976230;28;97281;-63
2022/05/11 05:36:06;;;;;;;2.40;2.00;;;20.00;94.20;;;20.00;46.89;100776.78;4960444;28;97071;-63
2022/05/11 05:38:32;;;;;;;2.77;2.00;;;20.00;94.10;;;20.01;46.89;100772.28;4980926;28;97234;-63
2022/05/11 05:40:58;;;;;;;2.20;2.00;;;20.10;94.10;;;19.99;47.00;100784.94;4972551;28;97263;-62
2022/05/11 05:43:24;;;;;;;5.70;4.17;;;20.00;94.00;;;20.01;48.62;100777.63;4974505;28;97346;-63
2022/05/11 05:45:53;;;;;;;2.57;2.20;;;20.10;94.70;;;19.95;46.85;100783.41;4982262;28;96996;-62
2022/05/11 05:48:20;;;;;;;2.57;2.33;;;20.00;93.90;;;20.02;46.90;100779.34;4971555;28;103293;-63
2022/05/11 05:50:48;;;;;;;3.90;2.20;;;20.10;94.00;;;20.01;46.98;100783.84;4961802;28;98228;-62
2022/05/11 05:53:19;;;;;;;11.10;8.13;;;20.10;94.10;;;20.03;50.21;100778.38;4964257;28;97011;-62
2022/05/11 05:55:49;;;;;;;2.30;2.10;;;20.10;96.20;;;20.02;47.11;100776.66;4964510;28;97120;-62
2022/05/11 05:58:16;;;;;;;2.83;2.53;;;20.10;94.10;;;20.05;47.08;100779.97;4968066;28;97775;-62
2022/05/11 06:00:43;;;;;;;8.37;4.50;;;20.10;94.10;;;20.06;47.56;100770.97;4976089;28;97331;-61
2022/05/11 06:03:12;;;;;;;4.50;3.70;;;20.10;94.60;;;20.09;49.52;100773.41;4970918;28;97286;-62
2022/05/11 06:05:38;;;;;;;3.73;3.43;;;20.10;95.70;;;20.09;47.87;100772.56;4965372;28;97302;-62
2022/05/11 06:08:07;;;;;;;4.03;3.63;;;20.10;95.20;;;20.11;47.78;100784.03;4957457;28;99147;-62
2022/05/11 06:10:35;;;;;;;9.80;7.33;;;20.10;95.30;;;20.11;51.09;100781.34;4977980;28;97198;-62
2022/05/11 06:13:01;;;;;;;13.47;8.60;;;20.10;97.00;;;20.11;53.28;100781.34;4963866;28;97447;-62
2022/05/11 06:15:27;;;;;;;12.90;9.03;;;20.10;98.50;;;20.08;53.65;100784.22;4961559;28;98553;-61
2022/05/11 06:17:53;;;;;;;14.10;8.33;;;20.10;99.40;;;20.06;52.90;100781.66;4952627;28;97226;-66
2022/05/11 06:20:19;;;;;;;10.87;7.67;;;20.00;98.60;;;20.05;52.37;100784.47;4972647;28;97165;-62
2022/05/11 06:22:45;;;;;;;13.07;7.53;;;20.00;98.40;;;20.03;51.25;100779.22;4968643;28;96945;-62
2022/05/11 06:25:11;;;;;;;11.20;7.33;;;20.00;97.70;;;20.05;52.08;100779.09;4959314;28;97184;-62
2022/05/11 06:27:37;;;;;;;10.83;8.53;;;20.00;98.40;;;20.02;51.55;100780.19;4961664;28;99144;-62
2022/05/11 06:30:04;;;;;;;13.20;8.47;;;20.00;97.90;;;20.03;51.62;100773.03;4953705;28;102289;-62
2022/05/11 06:32:32;;;;;;;11.87;7.57;;;20.00;98.00;;;20.05;51.32;100765.72;4963441;28;96964;-61
2022/05/11 06:34:58;;;;;;;9.03;6.23;;;20.00;97.50;;;20.06;51.92;100770.09;4946533;28;96952;-62
2022/05/11 06:37:24;;;;;;;9.33;8.03;;;20.10;98.10;;;20.07;51.84;100767.31;4951589;28;98625;-62
2022/05/11 06:39:50;;;;;;;8.97;7.17;;;20.00;98.00;;;20.08;51.73;100757.47;4965561;28;97025;-62
2022/05/11 06:42:18;;;;;;;13.73;7.47;;;20.00;98.00;;;20.11;52.07;100773.31;4982960;28;97074;-62
2022/05/11 06:44:44;;;;;;;11.07;6.67;;;20.10;98.10;;;20.04;50.24;100777.41;4975112;28;97302;-62
2022/05/11 06:47:09;;;;;;;11.77;6.83;;;20.10;96.70;;;20.09;50.16;100775.22;4961291;28;118272;-62
2022/05/11 06:49:35;;;;;;;10.47;6.50;;;20.10;96.90;;;20.12;49.74;100767.00;4970392;28;115070;-62
2022/05/11 06:52:04;;;;;;;10.13;6.47;;;20.10;96.50;;;20.15;49.45;100769.44;4973967;28;98411;-62
2022/05/11 06:59:59;;;;;;;8.77;6.80;;;20.20;96.00;;;20.15;49.16;100777.47;4954829;28;97247;-62
2022/05/11 07:02:25;;;;;;;13.07;6.57;;;20.20;96.00;;;20.18;48.65;100769.22;4965448;28;97133;-61
2022/05/11 07:04:51;;;;;;;9.33;6.63;;;20.20;95.80;;;20.11;48.74;100779.53;4969571;28;101196;-64
2022/05/11 07:07:18;;;;;;;9.57;6.73;;;20.20;95.80;;;20.13;49.21;100776.75;4953453;28;100318;-62
2022/05/11 07:09:44;;;;;;;10.07;6.43;;;20.20;95.90;;;20.11;49.17;100774.19;4963902;28;97293;-62
2022/05/11 07:12:22;;;;;;;11.93;6.10;;;20.20;95.90;;;20.14;48.25;100773.94;4971840;28;97468;-61
2022/05/11 07:14:53;;;;;;;8.90;6.40;;;20.20;95.40;;;20.07;48.78;100777.16;4938823;28;97027;-62
2022/05/11 07:17:42;;;;;;;10.30;5.43;;;20.20;95.70;;;20.12;48.68;100769.69;4954068;28;101408;-62
2022/05/11 07:20:24;;;;;;;7.17;5.10;;;20.20;95.60;;;20.09;48.19;100776.09;4934464;28;99507;-62
2022/05/11 07:22:50;;;;;;;5.83;4.77;;;20.20;95.20;;;20.08;48.18;100773.53;4940520;28;99617;-62
2022/05/11 07:25:19;;;;;;;9.80;4.97;;;20.20;95.10;;;20.11;48.36;100774.19;4917180;28;104452;-62
2022/05/11 07:27:45;;;;;;;9.40;4.90;;;20.20;95.20;;;20.16;48.23;100776.50;4953351;28;97099;-62
2022/05/11 07:30:22;;;;;;;9.07;4.90;;;20.30;95.10;;;20.16;47.77;100776.50;4938445;28;97374;-61
2022/05/11 07:32:49;;;;;;;6.47;4.20;;;20.30;95.20;;;20.13;47.14;100766.03;4950901;28;97679;-62
2022/05/11 07:35:20;;;;;;;8.97;5.00;;;20.30;94.50;;;20.17;47.55;100768.34;4941409;28;97077;-61
2022/05/11 07:37:47;;;;;;;7.10;5.07;;;20.30;94.70;;;20.15;47.67;100781.00;4957338;28;97190;-61
2022/05/11 07:40:18;;;;;;;9.47;4.93;;;20.30;94.70;;;20.17;47.62;100780.88;4956320;28;97364;-62
2022/05/11 07:42:44;;;;;;;8.47;5.70;;;20.30;94.80;;;20.14;47.70;100773.94;4957705;28;99377;-62
2022/05/11 07:45:14;;;;;;;9.57;5.03;;;20.30;94.90;;;20.18;48.62;100774.56;4955725;28;96877;-62
2022/05/11 07:47:41;;;;;;;8.63;4.93;;;20.30;95.20;;;20.19;48.17;100770.91;4963275;28;97418;-61
2022/05/11 07:50:08;;;;;;;9.87;4.30;;;20.30;95.30;;;20.26;47.90;100777.53;4957536;28;97472;-62
2022/05/11 07:52:34;;;;;;;6.43;3.60;;;20.40;95.00;;;20.29;48.02;100771.94;4961591;28;97207;-62
2022/05/11 07:55:00;;;;;;;5.70;3.00;;;20.50;95.00;;;20.33;46.52;100773.44;4957207;28;97373;-62
2022/05/11 08:00:12;;;;;;;4.63;3.53;;;20.50;94.50;;;20.33;46.60;100773.44;4955179;28;98202;-62
2022/05/11 08:02:39;;;;;;;6.93;3.47;;;20.50;94.00;;;20.36;46.80;100767.84;4961461;28;96906;-62
2022/05/11 08:05:13;;;;;;;4.37;3.57;;;20.50;94.00;;;20.38;47.38;100765.88;4958122;28;97473;-62
2022/05/11 08:07:53;;;;;;;6.97;4.07;;;20.60;94.40;;;20.43;47.34;100774.50;4960143;28;97071;-62
2022/05/11 08:10:30;;;;;;;7.30;4.30;;;20.60;94.50;;;20.44;47.07;100765.47;4952565;28;101276;-62
2022/05/11 08:12:57;;;;;;;5.53;4.20;;;20.60;94.40;;;20.40;47.92;100769.34;4956612;28;96848;-64
2022/05/11 08:15:30;;;;;;;7.37;4.30;;;20.60;94.70;;;20.42;46.94;100767.44;4934793;28;97504;-62
2022/05/11 08:17:58;;;;;;;5.03;4.43;;;20.60;94.20;;;20.41;47.49;100765.72;4949783;28;99361;-62
2022/05/11 08:20:28;;;;;;;6.40;5.07;;;20.60;94.40;;;20.46;47.65;100766.22;4970097;28;101781;-62
2022/05/11 08:22:58;;;;;;;6.67;4.83;;;20.70;94.50;;;20.45;47.43;100761.84;4960864;28;97928;-62
2022/05/11 08:25:28;;;;;;;10.00;4.40;;;20.60;94.40;;;20.54;48.96;100764.78;4941721;28;97603;-61
2022/05/11 08:27:56;;;;;;;9.03;4.60;;;20.70;95.60;;;20.51;47.72;100768.53;4939290;28;97090;-64
2022/05/11 08:33:26;;;;;;;6.53;4.40;;;20.70;94.70;;;20.49;47.56;100762.44;4955742;28;96856;-62
2022/05/11 08:36:01;;;;;;;5.97;3.90;;;20.70;94.40;;;20.55;47.86;100766.50;4961758;28;98624;-61
2022/05/11 08:38:32;;;;;;;8.90;4.27;;;20.70;94.60;;;20.58;48.06;100764.44;4936388;28;103548;-62
2022/05/11 08:41:32;;;;;;;6.90;4.00;;;20.80;94.90;;;20.60;47.98;100761.66;4959469;28;100044;-62
2022/05/11 08:44:32;;;;;;;7.53;3.93;;;20.80;94.60;;;20.62;47.95;100755.19;4944257;28;97184;-62
2022/05/11 08:47:15;;;;;;;5.93;3.83;;;20.80;94.70;;;20.62;47.82;100757.88;4955005;28;97702;-62
2022/05/11 08:49:59;;;;;;;5.33;3.93;;;20.80;94.70;;;20.69;47.63;100763.63;4960518;28;97536;-62
2022/05/11 08:52:51;;;;;;;5.77;3.80;;;20.80;94.80;;;20.67;46.72;100762.88;4958344;28;101264;-62
2022/05/11 08:55:32;;;;;;;5.37;3.93;;;20.90;94.70;;;20.68;47.06;100764.56;4950896;28;98194;-59
2022/05/11 08:58:12;;;;;;;8.30;3.60;;;20.80;94.30;;;20.66;47.74;100770.06;4954297;28;98004;-62
2022/05/11 09:00:42;;;;;;;8.27;3.77;;;20.80;94.10;;;20.67;47.53;100762.88;4955736;28;97540;-62
2022/05/11 09:03:41;;;;;;;6.50;3.67;;;20.80;94.40;;;20.83;47.89;100766.13;4925803;28;101391;-63
2022/05/11 09:06:27;;;;;;;6.10;3.53;;;20.90;94.10;;;20.89;46.71;100760.28;4950040;28;99335;-63
2022/05/11 09:08:59;;;;;;;6.17;3.30;;;21.00;94.70;;;20.83;47.27;100754.50;4942915;28;96992;-66
2022/05/11 09:11:51;;;;;;;4.27;3.20;;;21.00;94.30;;;20.89;47.65;100764.78;4956974;28;101690;-62
2022/05/11 09:14:28;;;;;;;3.90;3.23;;;21.00;94.80;;;20.80;46.69;100752.94;4970987;28;101228;-63
2022/05/11 09:16:55;;;;;;;6.20;3.27;;;21.00;94.10;;;20.79;47.87;100748.53;4952943;28;96855;-63
2022/05/11 09:19:31;;;;;;;5.20;3.13;;;21.00;94.50;;;20.86;48.49;100749.78;4974847;28;99235;-63
2022/05/11 09:22:17;;;;;;;4.73;3.03;;;21.00;95.20;;;20.79;47.62;100743.19;4947405;28;99830;-62
2022/05/11 09:24:50;;;;;;;5.43;2.80;;;21.00;94.70;;;20.83;48.09;100738.44;4977493;28;97257;-62
2022/05/11 09:27:33;;;;;;;3.73;2.83;;;21.00;94.60;;;20.86;46.18;100744.44;4973355;28;97461;-63
2022/05/11 09:30:26;;;;;;;7.23;3.93;;;21.00;93.70;;;20.95;47.10;100743.69;4968494;28;96693;-62
2022/05/11 09:33:16;;;;;;;6.53;3.93;;;21.10;94.70;;;20.87;47.21;100738.09;4969063;28;97714;-67
2022/05/11 09:35:44;;;;;;;5.03;3.60;;;21.00;94.50;;;20.88;48.53;100731.75;4967705;28;104405;-63
2022/05/11 09:38:42;;;;;;;3.33;3.03;;;21.00;95.10;;;20.96;47.37;100740.03;4958784;28;96923;-62
2022/05/11 09:41:22;;;;;;;5.60;3.67;;;21.20;94.40;;;20.95;47.43;100732.97;4969625;28;99051;-62
2022/05/11 09:43:58;;;;;;;6.17;3.63;;;21.10;94.60;;;20.94;47.07;100731.25;4974925;28;96948;-61
2022/05/11 09:46:26;;;;;;;5.30;3.40;;;21.10;94.50;;;20.97;48.41;100731.03;4958974;28;102223;-63
2022/05/11 09:49:13;;;;;;;6.27;3.70;;;21.10;94.90;;;21.06;47.54;100730.31;4974607;28;96941;-64
2022/05/11 09:51:38;;;;;;;10.47;4.53;;;21.20;94.60;;;21.04;47.58;100724.22;4968685;28;97325;-62
2022/05/11 09:54:28;;;;;;;5.97;3.83;;;21.30;94.30;;;21.10;46.16;100721.03;4971995;28;96773;-62
2022/05/11 09:57:17;;;;;;;7.47;4.60;;;21.30;93.90;;;21.06;47.00;100724.94;4952307;28;96833;-61
2022/05/11 09:59:49;;;;;;;10.20;3.80;;;21.30;94.20;;;20.98;47.48;100711.31;4959040;28;97377;-62
2022/05/11 10:02:35;;;;;;;5.33;3.77;;;21.20;93.80;;;21.07;47.30;100723.97;4967396;28;97602;-62
2022/05/11 10:05:12;;;;;;;6.40;4.10;;;21.20;94.90;;;21.25;48.06;100723.53;4975044;28;97717;-62
2022/05/11 10:07:49;;;;;;;6.00;3.53;;;21.40;95.10;;;21.14;47.39;100719.00;4972273;28;97523;-62
2022/05/11 10:10:27;;;;;;;5.43;3.73;;;21.30;93.70;;;21.16;46.47;100709.00;4978228;28;96793;-61
2022/05/11 10:13:01;;;;;;;4.70;3.83;;;21.30;93.80;;;21.24;47.86;100716.44;4968181;28;97240;-66
2022/05/11 10:21:56;;;;;;;5.17;4.10;;;21.50;94.10;;;21.42;47.47;100701.59;4959277;28;97184;-62
2022/05/11 10:24:40;;;;;;;6.60;3.43;;;21.60;94.90;;;21.56;46.65;100695.97;4969243;28;97143;-62
2022/05/11 10:27:19;;;;;;;4.40;3.83;;;21.80;94.10;;;21.47;46.00;100706.59;4958796;28;96735;-62
2022/05/11 10:30:28;;;;;;;4.53;4.13;;;21.70;93.30;;;21.54;47.24;100695.22;4977866;28;96813;-62
2022/05/11 10:33:24;;;;;;;5.67;3.67;;;21.80;93.70;;;21.54;46.34;100687.16;4883889;28;98009;-64
2022/05/11 10:36:25;;;;;;;7.87;3.63;;;21.70;93.80;;;21.58;46.74;100680.59;4932404;28;97035;-62
2022/05/11 10:39:14;;;;;;;7.17;3.93;;;21.80;93.60;;;21.55;46.61;100678.13;4957607;28;100402;-62
2022/05/11 10:41:45;;;;;;;6.33;4.13;;;21.80;93.90;;;21.67;46.78;100685.19;4945528;28;104470;-62
2022/05/11 10:44:46;;;;;;;8.03;4.10;;;21.90;93.90;;;21.57;44.88;100670.84;4922340;28;97211;-63
2022/05/11 10:47:38;;;;;;;6.10;3.83;;;21.80;93.00;;;21.55;48.11;100678.13;4955448;28;98006;-63
2022/05/11 10:50:40;;;;;;;9.70;3.97;;;21.70;94.00;;;21.71;46.58;100669.72;4958212;28;97033;-63
2022/05/11 10:54:05;;;;;;;6.57;4.10;;;21.90;94.00;;;21.87;45.15;100669.31;4967005;28;98492;-63